sensor_id;sensor_type;location;lat;lon;timestamp;pressure;altitude;pressure_sealevel;temperature;humidity
14204;BME280;7185;51.854;6.622;2023-04-04T00:01:49;102714.69;;;5.32;60.33
14204;BME280;7185;51.854;6.622;2023-04-04T00:04:21;102722.28;;;5.26;60.67
14204;BME280;7185;51.854;6.622;2023-04-04T00:06:54;102722.56;;;5.34;60.75
14204;BME280;7185;51.854;6.622;2023-04-04T00:09:26;102725.53;;;5.20;61.08
14204;BME280;7185;51.854;6.622;2023-04-04T00:11:57;102722.75;;;5.16;61.12
14204;BME280;7185;51.854;6.622;2023-04-04T00:14:29;102716.59;;;5.14;61.09
14204;BME280;7185;51.854;6.622;2023-04-04T00:17:01;102715.31;;;5.25;60.68
14204;BME280;7185;51.854;6.622;2023-04-04T00:19:33;102708.81;;;5.14;60.68
14204;BME280;7185;51.854;6.622;2023-04-04T00:22:06;102707.94;;;5.13;60.72
14204;BME280;7185;51.854;6.622;2023-04-04T00:24:37;102708.53;;;5.06;61.28
14204;BME280;7185;51.854;6.622;2023-04-04T00:27:09;102706.97;;;5.11;61.15
14204;BME280;7185;51.854;6.622;2023-04-04T00:29:40;102708.94;;;4.94;61.29
14204;BME280;7185;51.854;6.622;2023-04-04T00:32:12;102702.19;;;4.99;61.19
14204;BME280;7185;51.854;6.622;2023-04-04T00:34:44;102708.03;;;4.93;61.29
14204;BME280;7185;51.854;6.622;2023-04-04T00:37:17;102707.47;;;4.57;62.44
14204;BME280;7185;51.854;6.622;2023-04-04T00:39:49;102706.41;;;4.52;63.31
14204;BME280;7185;51.854;6.622;2023-04-04T00:42:20;102718.97;;;4.85;62.48
14204;BME280;7185;51.854;6.622;2023-04-04T00:44:52;102703.72;;;4.94;62.33
14204;BME280;7185;51.854;6.622;2023-04-04T00:47:24;102704.31;;;4.87;61.53
14204;BME280;7185;51.854;6.622;2023-04-04T00:50:00;102709.47;;;4.85;61.63
14204;BME280;7185;51.854;6.622;2023-04-04T00:52:33;102707.78;;;4.87;60.69
14204;BME280;7185;51.854;6.622;2023-04-04T00:55:06;102707.28;;;4.96;61.81
14204;BME280;7185;51.854;6.622;2023-04-04T00:57:38;102692.97;;;5.07;61.45
14204;BME280;7185;51.854;6.622;2023-04-04T01:00:11;102701.50;;;5.03;61.67
14204;BME280;7185;51.854;6.622;2023-04-04T01:02:47;102698.75;;;5.00;61.92
14204;BME280;7185;51.854;6.622;2023-04-04T01:05:19;102699.72;;;5.02;61.76
14204;BME280;7185;51.854;6.622;2023-04-04T01:07:52;102696.63;;;4.90;62.44
14204;BME280;7185;51.854;6.622;2023-04-04T01:10:23;102688.66;;;4.85;62.71
14204;BME280;7185;51.854;6.622;2023-04-04T01:12:55;102680.38;;;4.95;62.98
14204;BME280;7185;51.854;6.622;2023-04-04T01:15:27;102683.63;;;4.90;63.65
14204;BME280;7185;51.854;6.622;2023-04-04T01:18:01;102694.38;;;4.76;64.04
14204;BME280;7185;51.854;6.622;2023-04-04T01:20:39;102687.06;;;4.66;64.30
14204;BME280;7185;51.854;6.622;2023-04-04T01:23:15;102687.16;;;4.69;64.64
14204;BME280;7185;51.854;6.622;2023-04-04T01:25:49;102694.25;;;4.73;64.22
14204;BME280;7185;51.854;6.622;2023-04-04T01:28:20;102687.97;;;4.45;64.55
14204;BME280;7185;51.854;6.622;2023-04-04T01:30:52;102691.38;;;4.23;64.94
14204;BME280;7185;51.854;6.622;2023-04-04T01:33:27;102680.34;;;4.29;64.79
14204;BME280;7185;51.854;6.622;2023-04-04T01:36:03;102678.56;;;4.28;64.67
14204;BME280;7185;51.854;6.622;2023-04-04T01:38:47;102676.56;;;4.21;63.98
14204;BME280;7185;51.854;6.622;2023-04-04T01:41:25;102682.13;;;4.09;64.62
14204;BME280;7185;51.854;6.622;2023-04-04T01:43:57;102688.06;;;4.06;64.93
14204;BME280;7185;51.854;6.622;2023-04-04T01:46:29;102681.13;;;4.05;64.78
14204;BME280;7185;51.854;6.622;2023-04-04T01:49:01;102676.41;;;3.96;64.99
14204;BME280;7185;51.854;6.622;2023-04-04T01:51:33;102678.53;;;3.86;65.26
14204;BME280;7185;51.854;6.622;2023-04-04T01:54:05;102680.59;;;3.93;65.17
14204;BME280;7185;51.854;6.622;2023-04-04T01:56:38;102670.84;;;3.87;65.42
14204;BME280;7185;51.854;6.622;2023-04-04T01:59:09;102682.91;;;3.87;65.01
14204;BME280;7185;51.854;6.622;2023-04-04T02:01:41;102685.00;;;3.74;65.50
14204;BME280;7185;51.854;6.622;2023-04-04T02:04:13;102679.41;;;3.65;65.56
14204;BME280;7185;51.854;6.622;2023-04-04T02:06:45;102676.25;;;3.72;65.32
14204;BME280;7185;51.854;6.622;2023-04-04T02:09:17;102680.78;;;3.76;65.14
14204;BME280;7185;51.854;6.622;2023-04-04T02:11:50;102685.41;;;3.83;64.89
14204;BME280;7185;51.854;6.622;2023-04-04T02:14:21;102686.78;;;3.75;64.87
14204;BME280;7185;51.854;6.622;2023-04-04T02:16:53;102683.56;;;3.61;65.30
14204;BME280;7185;51.854;6.622;2023-04-04T02:19:25;102681.66;;;3.57;65.78
14204;BME280;7185;51.854;6.622;2023-04-04T02:21:56;102681.72;;;3.59;65.54
14204;BME280;7185;51.854;6.622;2023-04-04T02:24:28;102689.09;;;3.49;65.62
14204;BME280;7185;51.854;6.622;2023-04-04T02:27:01;102681.31;;;3.69;64.99
14204;BME280;7185;51.854;6.622;2023-04-04T02:29:33;102684.59;;;3.65;64.99
14204;BME280;7185;51.854;6.622;2023-04-04T02:32:05;102694.69;;;3.59;65.52
14204;BME280;7185;51.854;6.622;2023-04-04T02:34:37;102696.47;;;3.40;66.06
14204;BME280;7185;51.854;6.622;2023-04-04T02:37:08;102695.13;;;3.48;66.85
14204;BME280;7185;51.854;6.622;2023-04-04T02:39:40;102694.28;;;3.49;66.72
14204;BME280;7185;51.854;6.622;2023-04-04T02:42:13;102691.41;;;3.24;67.47
14204;BME280;7185;51.854;6.622;2023-04-04T02:44:44;102689.63;;;3.23;67.77
14204;BME280;7185;51.854;6.622;2023-04-04T02:47:16;102683.25;;;3.34;67.37
14204;BME280;7185;51.854;6.622;2023-04-04T02:49:48;102689.03;;;3.28;67.24
14204;BME280;7185;51.854;6.622;2023-04-04T02:52:19;102687.56;;;3.15;67.65
14204;BME280;7185;51.854;6.622;2023-04-04T02:54:51;102689.50;;;3.19;67.67
14204;BME280;7185;51.854;6.622;2023-04-04T02:57:25;102682.00;;;3.26;67.46
14204;BME280;7185;51.854;6.622;2023-04-04T02:59:56;102677.91;;;3.31;67.68
14204;BME280;7185;51.854;6.622;2023-04-04T03:02:28;102675.91;;;3.25;67.55
14204;BME280;7185;51.854;6.622;2023-04-04T03:05:00;102676.75;;;3.24;67.53
14204;BME280;7185;51.854;6.622;2023-04-04T03:07:31;102667.53;;;3.31;67.08
14204;BME280;7185;51.854;6.622;2023-04-04T03:10:04;102666.44;;;3.26;67.92
14204;BME280;7185;51.854;6.622;2023-04-04T03:12:37;102658.78;;;3.29;67.88
14204;BME280;7185;51.854;6.622;2023-04-04T03:15:09;102663.16;;;3.30;68.05
14204;BME280;7185;51.854;6.622;2023-04-04T03:17:41;102658.88;;;3.30;67.79
14204;BME280;7185;51.854;6.622;2023-04-04T03:20:14;102658.38;;;3.19;67.85
14204;BME280;7185;51.854;6.622;2023-04-04T03:22:45;102660.63;;;3.12;67.75
14204;BME280;7185;51.854;6.622;2023-04-04T03:25:17;102664.66;;;3.25;67.55
14204;BME280;7185;51.854;6.622;2023-04-04T03:27:50;102665.31;;;3.01;68.33
14204;BME280;7185;51.854;6.622;2023-04-04T03:30:21;102662.44;;;3.14;68.18
14204;BME280;7185;51.854;6.622;2023-04-04T03:32:53;102661.19;;;3.24;67.86
14204;BME280;7185;51.854;6.622;2023-04-04T03:35:25;102660.56;;;3.30;67.10
14204;BME280;7185;51.854;6.622;2023-04-04T03:37:56;102658.19;;;3.34;67.20
14204;BME280;7185;51.854;6.622;2023-04-04T03:40:31;102659.25;;;3.20;67.29
14204;BME280;7185;51.854;6.622;2023-04-04T03:43:05;102651.75;;;3.07;67.40
14204;BME280;7185;51.854;6.622;2023-04-04T03:45:37;102657.56;;;2.65;68.82
14204;BME280;7185;51.854;6.622;2023-04-04T03:48:08;102654.91;;;2.81;69.00
14204;BME280;7185;51.854;6.622;2023-04-04T03:50:40;102648.25;;;2.68;69.11
14204;BME280;7185;51.854;6.622;2023-04-04T03:53:11;102651.16;;;2.57;69.41
14204;BME280;7185;51.854;6.622;2023-04-04T03:55:44;102646.94;;;2.59;69.54
14204;BME280;7185;51.854;6.622;2023-04-04T03:58:17;102644.28;;;2.57;69.91
14204;BME280;7185;51.854;6.622;2023-04-04T04:00:48;102640.88;;;2.58;70.27
14204;BME280;7185;51.854;6.622;2023-04-04T04:03:20;102637.19;;;2.71;70.52
14204;BME280;7185;51.854;6.622;2023-04-04T04:05:51;102635.97;;;3.02;69.46
14204;BME280;7185;51.854;6.622;2023-04-04T04:08:24;102638.78;;;2.87;69.36
14204;BME280;7185;51.854;6.622;2023-04-04T04:11:02;102633.44;;;2.84;69.49
14204;BME280;7185;51.854;6.622;2023-04-04T04:13:35;102633.66;;;2.89;69.66
14204;BME280;7185;51.854;6.622;2023-04-04T04:16:08;102620.66;;;2.69;70.26
14204;BME280;7185;51.854;6.622;2023-04-04T04:18:39;102628.50;;;2.52;70.54
14204;BME280;7185;51.854;6.622;2023-04-04T04:21:11;102640.53;;;2.32;71.18
14204;BME280;7185;51.854;6.622;2023-04-04T04:23:42;102641.16;;;2.28;71.56
14204;BME280;7185;51.854;6.622;2023-04-04T04:26:14;102641.19;;;2.46;71.34
14204;BME280;7185;51.854;6.622;2023-04-04T04:28:47;102649.16;;;2.33;71.73
14204;BME280;7185;51.854;6.622;2023-04-04T04:31:19;102648.28;;;2.32;71.63
14204;BME280;7185;51.854;6.622;2023-04-04T04:33:50;102647.09;;;2.26;71.67
14204;BME280;7185;51.854;6.622;2023-04-04T04:36:22;102651.75;;;2.33;71.79
14204;BME280;7185;51.854;6.622;2023-04-04T04:38:54;102645.47;;;2.28;71.25
14204;BME280;7185;51.854;6.622;2023-04-04T04:41:25;102649.31;;;2.36;70.95
14204;BME280;7185;51.854;6.622;2023-04-04T04:43:58;102651.25;;;2.40;70.54
14204;BME280;7185;51.854;6.622;2023-04-04T04:46:30;102652.84;;;2.38;70.36
14204;BME280;7185;51.854;6.622;2023-04-04T04:49:02;102649.47;;;2.39;70.19
14204;BME280;7185;51.854;6.622;2023-04-04T04:51:34;102647.69;;;2.38;70.46
14204;BME280;7185;51.854;6.622;2023-04-04T04:54:06;102646.06;;;2.40;70.11
14204;BME280;7185;51.854;6.622;2023-04-04T04:56:38;102644.28;;;2.39;70.02
14204;BME280;7185;51.854;6.622;2023-04-04T04:59:11;102646.22;;;2.43;70.13
14204;BME280;7185;51.854;6.622;2023-04-04T05:01:44;102639.84;;;2.36;70.09
14204;BME280;7185;51.854;6.622;2023-04-04T05:04:15;102635.25;;;2.31;70.00
14204;BME280;7185;51.854;6.622;2023-04-04T05:06:47;102642.66;;;2.41;69.18
14204;BME280;7185;51.854;6.622;2023-04-04T05:09:19;102638.66;;;2.30;68.67
14204;BME280;7185;51.854;6.622;2023-04-04T05:11:50;102642.88;;;2.28;69.66
14204;BME280;7185;51.854;6.622;2023-04-04T05:14:23;102645.19;;;2.21;69.66
14204;BME280;7185;51.854;6.622;2023-04-04T05:16:55;102642.75;;;2.08;69.99
14204;BME280;7185;51.854;6.622;2023-04-04T05:19:26;102642.75;;;2.08;70.20
14204;BME280;7185;51.854;6.622;2023-04-04T05:21:58;102646.03;;;2.04;70.62
14204;BME280;7185;51.854;6.622;2023-04-04T05:24:30;102648.56;;;2.20;70.59
14204;BME280;7185;51.854;6.622;2023-04-04T05:27:02;102654.25;;;2.13;70.70
14204;BME280;7185;51.854;6.622;2023-04-04T05:29:34;102651.28;;;2.23;70.68
14204;BME280;7185;51.854;6.622;2023-04-04T05:32:06;102656.41;;;2.22;70.75
14204;BME280;7185;51.854;6.622;2023-04-04T05:34:38;102662.31;;;2.19;70.91
14204;BME280;7185;51.854;6.622;2023-04-04T05:37:09;102666.19;;;2.28;70.76
14204;BME280;7185;51.854;6.622;2023-04-04T05:39:41;102666.47;;;2.34;70.83
14204;BME280;7185;51.854;6.622;2023-04-04T05:42:12;102662.84;;;2.48;71.02
14204;BME280;7185;51.854;6.622;2023-04-04T05:44:45;102662.34;;;2.55;70.23
14204;BME280;7185;51.854;6.622;2023-04-04T05:47:17;102662.63;;;2.62;70.19
14204;BME280;7185;51.854;6.622;2023-04-04T05:49:50;102664.69;;;2.69;69.83
14204;BME280;7185;51.854;6.622;2023-04-04T05:52:22;102666.03;;;2.61;69.98
14204;BME280;7185;51.854;6.622;2023-04-04T05:54:54;102673.28;;;2.68;69.64
14204;BME280;7185;51.854;6.622;2023-04-04T05:57:26;102675.34;;;2.75;69.26
14204;BME280;7185;51.854;6.622;2023-04-04T05:59:59;102682.72;;;2.85;69.43
14204;BME280;7185;51.854;6.622;2023-04-04T06:02:31;102691.19;;;2.81;69.60
14204;BME280;7185;51.854;6.622;2023-04-04T06:05:03;102696.66;;;2.87;69.28
14204;BME280;7185;51.854;6.622;2023-04-04T06:07:34;102692.34;;;3.06;69.15
14204;BME280;7185;51.854;6.622;2023-04-04T06:10:07;102688.59;;;3.19;68.51
14204;BME280;7185;51.854;6.622;2023-04-04T06:12:39;102691.88;;;3.34;67.82
14204;BME280;7185;51.854;6.622;2023-04-04T06:15:12;102697.63;;;3.47;66.94
14204;BME280;7185;51.854;6.622;2023-04-04T06:17:44;102694.69;;;3.59;67.05
14204;BME280;7185;51.854;6.622;2023-04-04T06:20:15;102700.97;;;3.64;66.63
14204;BME280;7185;51.854;6.622;2023-04-04T06:22:48;102702.34;;;3.75;65.70
14204;BME280;7185;51.854;6.622;2023-04-04T06:25:19;102704.75;;;3.92;65.08
14204;BME280;7185;51.854;6.622;2023-04-04T06:27:51;102698.59;;;4.09;64.96
14204;BME280;7185;51.854;6.622;2023-04-04T06:30:24;102694.06;;;4.25;63.67
14204;BME280;7185;51.854;6.622;2023-04-04T06:32:55;102695.50;;;4.39;63.60
14204;BME280;7185;51.854;6.622;2023-04-04T06:35:27;102696.63;;;4.46;63.72
14204;BME280;7185;51.854;6.622;2023-04-04T06:37:59;102699.22;;;4.67;63.87
14204;BME280;7185;51.854;6.622;2023-04-04T06:40:31;102691.31;;;4.87;63.11
14204;BME280;7185;51.854;6.622;2023-04-04T06:43:07;102698.69;;;4.76;61.88
14204;BME280;7185;51.854;6.622;2023-04-04T06:45:40;102698.22;;;5.09;61.69
14204;BME280;7185;51.854;6.622;2023-04-04T06:48:13;102688.41;;;5.24;61.49
14204;BME280;7185;51.854;6.622;2023-04-04T06:50:45;102691.53;;;5.38;60.11
14204;BME280;7185;51.854;6.622;2023-04-04T06:53:16;102690.31;;;5.53;60.25
14204;BME280;7185;51.854;6.622;2023-04-04T06:55:48;102694.19;;;5.64;59.21
14204;BME280;7185;51.854;6.622;2023-04-04T06:58:20;102698.38;;;5.85;57.92
14204;BME280;7185;51.854;6.622;2023-04-04T07:00:53;102705.38;;;5.86;56.60
14204;BME280;7185;51.854;6.622;2023-04-04T07:03:26;102706.16;;;6.08;56.61
14204;BME280;7185;51.854;6.622;2023-04-04T07:06:01;102699.97;;;6.31;57.84
14204;BME280;7185;51.854;6.622;2023-04-04T07:08:34;102699.78;;;6.25;56.60
14204;BME280;7185;51.854;6.622;2023-04-04T07:11:06;102697.88;;;6.47;56.80
14204;BME280;7185;51.854;6.622;2023-04-04T07:13:38;102693.41;;;6.70;56.19
14204;BME280;7185;51.854;6.622;2023-04-04T07:16:12;102690.44;;;6.86;56.47
14204;BME280;7185;51.854;6.622;2023-04-04T07:18:43;102690.75;;;6.97;56.73
14204;BME280;7185;51.854;6.622;2023-04-04T07:21:15;102688.69;;;7.16;57.04
14204;BME280;7185;51.854;6.622;2023-04-04T07:23:47;102686.84;;;7.42;55.64
14204;BME280;7185;51.854;6.622;2023-04-04T07:26:20;102695.88;;;7.54;54.34
14204;BME280;7185;51.854;6.622;2023-04-04T07:28:57;102694.91;;;7.82;52.07
14204;BME280;7185;51.854;6.622;2023-04-04T07:31:31;102690.34;;;7.75;50.72
14204;BME280;7185;51.854;6.622;2023-04-04T07:34:02;102689.31;;;8.02;50.94
14204;BME280;7185;51.854;6.622;2023-04-04T07:36:34;102691.09;;;8.03;48.59
14204;BME280;7185;51.854;6.622;2023-04-04T07:39:06;102690.66;;;8.54;48.60
14204;BME280;7185;51.854;6.622;2023-04-04T07:41:37;102694.06;;;8.90;49.09
14204;BME280;7185;51.854;6.622;2023-04-04T07:44:10;102691.91;;;9.10;48.35
14204;BME280;7185;51.854;6.622;2023-04-04T07:46:43;102691.38;;;9.27;45.54
14204;BME280;7185;51.854;6.622;2023-04-04T07:49:15;102690.06;;;9.06;45.52
14204;BME280;7185;51.854;6.622;2023-04-04T07:51:46;102685.94;;;9.16;44.57
14204;BME280;7185;51.854;6.622;2023-04-04T07:54:19;102687.16;;;9.79;46.98
14204;BME280;7185;51.854;6.622;2023-04-04T07:56:57;102676.59;;;10.24;44.78
14204;BME280;7185;51.854;6.622;2023-04-04T07:59:29;102670.13;;;10.57;45.07
14204;BME280;7185;51.854;6.622;2023-04-04T08:02:03;102668.75;;;10.83;43.17
14204;BME280;7185;51.854;6.622;2023-04-04T08:04:35;102674.06;;;10.85;42.12
14204;BME280;7185;51.854;6.622;2023-04-04T08:07:07;102676.13;;;11.09;42.98
14204;BME280;7185;51.854;6.622;2023-04-04T08:09:39;102676.16;;;11.12;39.51
14204;BME280;7185;51.854;6.622;2023-04-04T08:12:11;102680.09;;;11.48;40.32
14204;BME280;7185;51.854;6.622;2023-04-04T08:14:44;102670.19;;;12.07;40.36
14204;BME280;7185;51.854;6.622;2023-04-04T08:17:19;102680.72;;;12.07;39.26
14204;BME280;7185;51.854;6.622;2023-04-04T08:19:57;102673.28;;;12.72;39.53
14204;BME280;7185;51.854;6.622;2023-04-04T08:22:29;102676.03;;;12.91;37.72
14204;BME280;7185;51.854;6.622;2023-04-04T08:25:07;102679.72;;;13.33;35.58
14204;BME280;7185;51.854;6.622;2023-04-04T08:27:40;102678.13;;;13.69;36.47
14204;BME280;7185;51.854;6.622;2023-04-04T08:30:14;102671.97;;;13.78;33.83
14204;BME280;7185;51.854;6.622;2023-04-04T08:32:49;102674.59;;;13.77;33.38
14204;BME280;7185;51.854;6.622;2023-04-04T08:35:23;102665.75;;;13.47;34.50
14204;BME280;7185;51.854;6.622;2023-04-04T08:37:55;102664.03;;;13.61;34.41
14204;BME280;7185;51.854;6.622;2023-04-04T08:40:28;102664.97;;;13.97;32.44
14204;BME280;7185;51.854;6.622;2023-04-04T08:43:03;102648.22;;;14.29;33.73
14204;BME280;7185;51.854;6.622;2023-04-04T08:45:38;102657.78;;;15.00;30.17
14204;BME280;7185;51.854;6.622;2023-04-04T08:48:41;102658.75;;;14.76;32.12
14204;BME280;7185;51.854;6.622;2023-04-04T08:51:18;102663.16;;;14.69;31.33
14204;BME280;7185;51.854;6.622;2023-04-04T08:53:59;102649.78;;;15.14;31.86
14204;BME280;7185;51.854;6.622;2023-04-04T08:56:41;102641.03;;;15.09;30.59
14204;BME280;7185;51.854;6.622;2023-04-04T08:59:25;102648.84;;;15.27;32.30
14204;BME280;7185;51.854;6.622;2023-04-04T09:02:04;102642.53;;;15.55;30.67
14204;BME280;7185;51.854;6.622;2023-04-04T09:04:54;102647.63;;;15.84;29.38
14204;BME280;7185;51.854;6.622;2023-04-04T09:07:27;102649.94;;;16.28;29.26
14204;BME280;7185;51.854;6.622;2023-04-04T09:10:04;102642.78;;;15.10;28.90
14204;BME280;7185;51.854;6.622;2023-04-04T09:12:57;102645.00;;;15.83;28.62
14204;BME280;7185;51.854;6.622;2023-04-04T09:15:33;102642.72;;;15.25;29.15
14204;BME280;7185;51.854;6.622;2023-04-04T09:18:10;102640.94;;;15.21;30.64
14204;BME280;7185;51.854;6.622;2023-04-04T09:21:08;102633.69;;;15.60;28.81
14204;BME280;7185;51.854;6.622;2023-04-04T09:24:00;102632.94;;;15.37;30.23
14204;BME280;7185;51.854;6.622;2023-04-04T09:26:49;102628.31;;;15.70;28.52
14204;BME280;7185;51.854;6.622;2023-04-04T09:29:26;102636.16;;;16.77;28.69
14204;BME280;7185;51.854;6.622;2023-04-04T09:32:42;102624.28;;;16.33;28.65
14204;BME280;7185;51.854;6.622;2023-04-04T09:35:32;102631.56;;;16.96;28.82
14204;BME280;7185;51.854;6.622;2023-04-04T09:47:52;102624.53;;;17.58;25.41
14204;BME280;7185;51.854;6.622;2023-04-04T09:50:24;102624.53;;;16.92;28.45
14204;BME280;7185;51.854;6.622;2023-04-04T09:52:58;102629.47;;;16.45;27.77
14204;BME280;7185;51.854;6.622;2023-04-04T09:55:31;102622.69;;;16.99;28.02
14204;BME280;7185;51.854;6.622;2023-04-04T09:58:11;102619.44;;;17.42;26.63
14204;BME280;7185;51.854;6.622;2023-04-04T10:00:45;102623.88;;;17.42;26.24
14204;BME280;7185;51.854;6.622;2023-04-04T10:03:21;102621.75;;;17.65;26.32
14204;BME280;7185;51.854;6.622;2023-04-04T10:05:58;102620.72;;;17.15;26.61
14204;BME280;7185;51.854;6.622;2023-04-04T10:08:39;102616.44;;;17.03;27.65
14204;BME280;7185;51.854;6.622;2023-04-04T10:11:30;102613.34;;;16.67;26.48
14204;BME280;7185;51.854;6.622;2023-04-04T10:14:08;102608.41;;;16.33;28.83
14204;BME280;7185;51.854;6.622;2023-04-04T10:16:45;102616.81;;;15.75;29.09
14204;BME280;7185;51.854;6.622;2023-04-04T10:19:27;102611.94;;;16.32;29.73
14204;BME280;7185;51.854;6.622;2023-04-04T10:22:16;102605.91;;;16.16;27.34
14204;BME280;7185;51.854;6.622;2023-04-04T10:24:52;102602.09;;;16.48;27.57
14204;BME280;7185;51.854;6.622;2023-04-04T10:27:28;102597.91;;;17.04;26.68
14204;BME280;7185;51.854;6.622;2023-04-04T10:30:03;102606.50;;;17.20;27.71
14204;BME280;7185;51.854;6.622;2023-04-04T10:32:47;102596.34;;;17.49;27.03
14204;BME280;7185;51.854;6.622;2023-04-04T10:35:33;102598.13;;;18.05;26.38
14204;BME280;7185;51.854;6.622;2023-04-04T10:38:27;102588.69;;;18.37;25.27
14204;BME280;7185;51.854;6.622;2023-04-04T10:41:04;102582.53;;;18.80;26.04
14204;BME280;7185;51.854;6.622;2023-04-04T10:43:40;102590.59;;;18.30;27.00
14204;BME280;7185;51.854;6.622;2023-04-04T10:46:42;102584.03;;;18.93;24.58
14204;BME280;7185;51.854;6.622;2023-04-04T10:49:17;102584.91;;;18.94;25.09
14204;BME280;7185;51.854;6.622;2023-04-04T10:51:50;102583.69;;;19.09;24.51
14204;BME280;7185;51.854;6.622;2023-04-04T10:54:24;102573.75;;;19.17;24.45
14204;BME280;7185;51.854;6.622;2023-04-04T10:56:57;102575.97;;;18.98;26.06
14204;BME280;7185;51.854;6.622;2023-04-04T10:59:30;102573.59;;;19.25;25.31
14204;BME280;7185;51.854;6.622;2023-04-04T11:02:03;102573.59;;;19.25;26.23
14204;BME280;7185;51.854;6.622;2023-04-04T11:04:37;102564.41;;;19.38;25.48
14204;BME280;7185;51.854;6.622;2023-04-04T11:07:14;102569.38;;;19.88;24.78
14204;BME280;7185;51.854;6.622;2023-04-04T11:09:51;102565.09;;;20.49;23.16
14204;BME280;7185;51.854;6.622;2023-04-04T11:12:28;102550.50;;;19.27;26.12
14204;BME280;7185;51.854;6.622;2023-04-04T11:15:08;102553.22;;;19.60;23.67
14204;BME280;7185;51.854;6.622;2023-04-04T11:17:51;102551.19;;;18.96;24.72
14204;BME280;7185;51.854;6.622;2023-04-04T11:20:28;102552.75;;;18.62;24.67
14204;BME280;7185;51.854;6.622;2023-04-04T11:23:04;102550.50;;;19.27;23.71
14204;BME280;7185;51.854;6.622;2023-04-04T11:25:37;102543.97;;;19.75;24.59
14204;BME280;7185;51.854;6.622;2023-04-04T11:28:24;102533.78;;;20.26;25.15
14204;BME280;7185;51.854;6.622;2023-04-04T11:31:23;102532.44;;;20.74;23.87
14204;BME280;7185;51.854;6.622;2023-04-04T11:33:59;102533.63;;;21.47;23.82
14204;BME280;7185;51.854;6.622;2023-04-04T11:36:50;102525.00;;;22.18;22.90
14204;BME280;7185;51.854;6.622;2023-04-04T11:39:27;102521.94;;;22.98;21.41
14204;BME280;7185;51.854;6.622;2023-04-04T11:42:01;102523.94;;;22.71;19.83
14204;BME280;7185;51.854;6.622;2023-04-04T11:44:39;102522.94;;;22.73;21.37
14204;BME280;7185;51.854;6.622;2023-04-04T11:47:12;102523.19;;;22.67;20.74
14204;BME280;7185;51.854;6.622;2023-04-04T11:49:45;102510.88;;;22.85;20.70
14204;BME280;7185;51.854;6.622;2023-04-04T11:52:17;102510.53;;;23.17;19.07
14204;BME280;7185;51.854;6.622;2023-04-04T11:54:49;102511.22;;;23.22;20.37
14204;BME280;7185;51.854;6.622;2023-04-04T11:57:20;102494.59;;;22.91;20.59
14204;BME280;7185;51.854;6.622;2023-04-04T11:59:52;102508.56;;;22.76;20.48
14204;BME280;7185;51.854;6.622;2023-04-04T12:02:25;102497.34;;;22.90;19.93
14204;BME280;7185;51.854;6.622;2023-04-04T12:05:02;102492.81;;;23.13;20.29
14204;BME280;7185;51.854;6.622;2023-04-04T12:07:36;102490.69;;;22.54;20.55
14204;BME280;7185;51.854;6.622;2023-04-04T12:10:08;102488.09;;;22.75;20.77
14204;BME280;7185;51.854;6.622;2023-04-04T12:12:40;102491.47;;;23.24;18.98
14204;BME280;7185;51.854;6.622;2023-04-04T12:15:12;102486.38;;;23.18;19.26
14204;BME280;7185;51.854;6.622;2023-04-04T12:17:44;102483.66;;;22.75;18.28
14204;BME280;7185;51.854;6.622;2023-04-04T12:20:21;102474.16;;;22.44;20.24
14204;BME280;7185;51.854;6.622;2023-04-04T12:22:52;102481.31;;;22.44;21.62
14204;BME280;7185;51.854;6.622;2023-04-04T12:25:24;102481.91;;;21.78;21.59
14204;BME280;7185;51.854;6.622;2023-04-04T12:27:57;102468.25;;;21.87;21.70
14204;BME280;7185;51.854;6.622;2023-04-04T12:30:30;102475.53;;;21.55;20.56
14204;BME280;7185;51.854;6.622;2023-04-04T12:33:03;102481.81;;;21.00;21.91
14204;BME280;7185;51.854;6.622;2023-04-04T12:35:36;102467.41;;;21.33;20.42
14204;BME280;7185;51.854;6.622;2023-04-04T12:38:15;102463.88;;;21.59;21.03
14204;BME280;7185;51.854;6.622;2023-04-04T12:40:47;102459.53;;;21.55;21.82
14204;BME280;7185;51.854;6.622;2023-04-04T12:43:21;102461.13;;;22.11;20.95
14204;BME280;7185;51.854;6.622;2023-04-04T12:45:54;102457.34;;;21.93;19.40
14204;BME280;7185;51.854;6.622;2023-04-04T12:48:27;102454.69;;;23.07;20.02
14204;BME280;7185;51.854;6.622;2023-04-04T12:51:00;102446.75;;;24.09;18.07
14204;BME280;7185;51.854;6.622;2023-04-04T12:53:49;102447.63;;;23.49;18.81
14204;BME280;7185;51.854;6.622;2023-04-04T12:56:24;102433.16;;;23.53;17.90
14204;BME280;7185;51.854;6.622;2023-04-04T12:58:59;102431.00;;;23.62;18.52
14204;BME280;7185;51.854;6.622;2023-04-04T13:01:32;102433.88;;;24.17;18.28
14204;BME280;7185;51.854;6.622;2023-04-04T13:04:07;102421.78;;;24.66;17.63
14204;BME280;7185;51.854;6.622;2023-04-04T13:06:43;102416.91;;;24.74;17.56
14204;BME280;7185;51.854;6.622;2023-04-04T13:09:16;102415.78;;;25.15;17.21
14204;BME280;7185;51.854;6.622;2023-04-04T13:11:55;102406.56;;;24.84;18.37
14204;BME280;7185;51.854;6.622;2023-04-04T13:14:58;102403.81;;;24.86;17.46
14204;BME280;7185;51.854;6.622;2023-04-04T13:17:41;102385.00;;;26.05;16.41
14204;BME280;7185;51.854;6.622;2023-04-04T13:20:15;102394.06;;;25.55;17.34
14204;BME280;7185;51.854;6.622;2023-04-04T13:22:49;102387.66;;;25.73;16.68
14204;BME280;7185;51.854;6.622;2023-04-04T13:25:22;102383.31;;;26.52;16.47
14204;BME280;7185;51.854;6.622;2023-04-04T13:27:53;102388.66;;;26.04;16.93
14204;BME280;7185;51.854;6.622;2023-04-04T13:30:25;102380.38;;;26.09;16.69
14204;BME280;7185;51.854;6.622;2023-04-04T13:32:58;102374.69;;;25.82;18.32
14204;BME280;7185;51.854;6.622;2023-04-04T13:35:30;102375.00;;;26.09;17.80
14204;BME280;7185;51.854;6.622;2023-04-04T13:38:03;102372.16;;;26.12;16.35
14204;BME280;7185;51.854;6.622;2023-04-04T13:40:35;102366.78;;;25.45;16.37
14204;BME280;7185;51.854;6.622;2023-04-04T13:43:07;102370.38;;;24.75;18.20
14204;BME280;7185;51.854;6.622;2023-04-04T13:45:41;102365.31;;;24.13;18.76
14204;BME280;7185;51.854;6.622;2023-04-04T13:48:13;102357.59;;;24.80;16.99
14204;BME280;7185;51.854;6.622;2023-04-04T13:50:46;102355.94;;;24.03;17.44
14204;BME280;7185;51.854;6.622;2023-04-04T13:53:22;102358.53;;;23.85;18.84
14204;BME280;7185;51.854;6.622;2023-04-04T13:55:53;102352.34;;;23.24;18.91